Aérodrome :
LOGIN :

S'inscrire | Disclaimer

   EN    FR    IT 

 










Légende :    VFR   VFR Marginal   IFR   IFR Intensif   IFR Très Intensif
Visi : 
Plafond : 
>= 8 km
>= 3000ft
5 à 8 km
1000 à 3000 ft
1500m à 5 km
500 à 1000 ft
800 à 1500m
200 à 500 ft
< 800m
< 200 ft
Symboles :   Orages  Brouillard  Fortes neiges  Fortes précipitations  Vent > 20 kt
SIGMETs :   Divers  Orages  Givrage  Turbulence  Onde Orograph.  Cendres Volcan.






- Altitude de l'aérodrome : 587 ft
- Code IATA : XCR


LFOK - Chalons Vatry

DERNIER METAR :
  • 281200Z AUTO 03012KT 360V070 9999 FEW043 SCT049 22/12 Q1028 NOSIG

METARs EXPIRÉS :
  • 281130Z AUTO 03012KT 9999 1100 R10/P5000 R28/0800U SCT039 SCT048 21/12 Q1028 NOSIG
  • 281100Z AUTO 02012KT 9999 FEW036 22/13 Q1029 NOSIG
  • 281030Z AUTO 03012KT 350V070 CAVOK 21/13 Q1029 NOSIG
  • 281000Z AUTO 01012KT CAVOK 20/12 Q1029 NOSIG
  • 280930Z AUTO 02013KT CAVOK 19/13 Q1029 NOSIG

TAF TAF LFOK
Valide du 28 à 12h jusqu'au 29 à 12h UTC


281100Z 2812/2912 04013KT CAVOK



MET'MAP, la Météo Aéronautique d'un coup d'oeil ! - Copyright ORBIFLY Décembre 2007 - Disclaimer

ORBIFLY MET'MAP TEAM :

Programmation & Développement : Alexandra Zaïnal
Sur une idée originale de : Baudouin d'Aumeries
Assistance à la programmation : Marc-Olivier Méhu
Soutien technique & logistique : Manuel Goepfert

Contact : metmap@orbifly.com




SOURCES & CREDITS :

   NOAA